Time;durP1;ratioP1;P1;durP2;ratioP2;P2;SDS_P1;SDS_P2;PMS_P1;PMS_P2;Temp;Humidity;BMP_temperature;BMP_pressure;BME280_temperature;BME280_humidity;BME280_pressure;Samples;Min_cycle;Max_cycle;Signal;HPM_P1;HPM_P2
2022/07/12 00:00:36;;;;;;;7.23;6.30;;;;;;;13.80;97.62;102354.75;5050169;28;20486;-43
2022/07/12 00:03:05;;;;;;;5.00;4.70;;;;;;;13.74;97.72;102343.88;5049126;28;20463;-43
2022/07/12 00:05:33;;;;;;;5.77;5.37;;;;;;;13.67;97.40;102349.16;5049731;28;20535;-43
2022/07/12 00:08:00;;;;;;;5.53;5.23;;;;;;;13.59;97.49;102341.13;5055549;22;22591;-42
2022/07/12 00:10:28;;;;;;;5.40;4.90;;;;;;;13.55;97.60;102339.84;5030135;28;21000;-44
2022/07/12 00:12:56;;;;;;;5.97;5.47;;;;;;;13.50;97.58;102336.84;5029205;28;20470;-43
2022/07/12 00:15:23;;;;;;;6.20;5.67;;;;;;;13.44;97.60;102336.75;5030078;28;20442;-42
2022/07/12 00:17:51;;;;;;;6.77;6.17;;;;;;;13.39;97.83;102337.25;5029842;28;20523;-47
2022/07/12 00:20:20;;;;;;;5.77;5.30;;;;;;;13.35;97.88;102346.66;5029627;28;20519;-43
2022/07/12 00:22:48;;;;;;;6.63;6.10;;;;;;;13.32;98.61;102341.63;5029149;28;20506;-43
2022/07/12 00:25:16;;;;;;;6.27;5.70;;;;;;;13.29;98.52;102340.16;5029640;28;20983;-43
2022/07/12 00:27:44;;;;;;;5.57;5.03;;;;;;;13.27;98.86;102336.81;5029493;28;20432;-44
2022/07/12 00:30:12;;;;;;;6.90;6.50;;;;;;;13.24;98.77;102336.31;5029646;28;20971;-43
2022/07/12 00:32:40;;;;;;;7.10;6.60;;;;;;;13.20;99.18;102337.72;5036436;28;20542;-43
2022/07/12 00:35:08;;;;;;;5.77;5.37;;;;;;;13.19;99.32;102336.03;5033024;28;20434;-45
2022/07/12 00:37:37;;;;;;;7.30;6.60;;;;;;;13.17;99.22;102336.19;5049220;28;20453;-42
2022/07/12 00:40:08;;;;;;;6.87;6.30;;;;;;;13.15;99.71;102329.34;5049738;28;20537;-43
2022/07/12 00:42:36;;;;;;;7.20;6.53;;;;;;;13.13;99.35;102342.91;5048429;28;20891;-42
2022/07/12 00:45:04;;;;;;;6.70;6.10;;;;;;;13.10;99.74;102345.13;5049288;28;20434;-44
2022/07/12 00:47:37;;;;;;;6.77;6.30;;;;;;;13.05;99.83;102340.22;5049173;28;20828;-43
2022/07/12 00:50:07;;;;;;;6.60;6.20;;;;;;;13.01;99.44;102340.75;5049214;28;20513;-47
2022/07/12 00:52:37;;;;;;;9.67;6.90;;;;;;;12.99;99.72;102330.22;5048482;28;20481;-45
2022/07/12 00:55:06;;;;;;;6.80;6.30;;;;;;;12.96;99.93;102327.06;5049357;28;20781;-43
2022/07/12 00:57:34;;;;;;;7.37;6.80;;;;;;;12.94;99.92;102329.91;5049117;28;20785;-44
2022/07/12 01:00:02;;;;;;;7.77;7.07;;;;;;;12.91;100.00;102324.06;5048851;28;20455;-46
2022/07/12 01:02:29;;;;;;;7.80;7.20;;;;;;;12.90;100.00;102319.72;5048076;28;20555;-43
2022/07/12 01:04:59;;;;;;;7.53;6.97;;;;;;;12.89;100.00;102320.72;5049216;28;21057;-42
2022/07/12 01:07:27;;;;;;;6.67;6.17;;;;;;;12.90;100.00;102325.09;5048948;28;20800;-46
2022/07/12 01:09:56;;;;;;;7.00;6.50;;;;;;;12.94;100.00;102323.72;5048520;28;20477;-43
2022/07/12 01:12:25;;;;;;;7.57;6.90;;;;;;;12.98;100.00;102327.72;5048067;28;20997;-44
2022/07/12 01:14:54;;;;;;;7.00;6.40;;;;;;;13.03;100.00;102325.34;5048825;28;20427;-43
2022/07/12 01:17:23;;;;;;;7.63;6.80;;;;;;;13.08;100.00;102325.72;5031668;28;21485;-46
2022/07/12 01:19:52;;;;;;;7.90;7.30;;;;;;;13.10;100.00;102326.38;5024282;28;20448;-44
2022/07/12 01:22:26;;;;;;;8.50;7.70;;;;;;;13.19;100.00;102328.00;5026329;28;21242;-45
2022/07/12 01:24:55;;;;;;;9.93;7.27;;;;;;;13.27;100.00;102325.25;5029579;28;20424;-44
2022/07/12 01:27:23;;;;;;;7.03;6.50;;;;;;;13.37;100.00;102325.03;5029765;28;20432;-44
2022/07/12 01:29:50;;;;;;;9.30;8.40;;;;;;;13.45;100.00;102331.19;5029743;28;20447;-43
2022/07/12 01:32:29;;;;;;;8.33;7.63;;;;;;;13.53;100.00;102328.44;5032029;28;21170;-42
2022/07/12 01:34:58;;;;;;;7.70;7.00;;;;;;;13.61;100.00;102322.22;5036931;28;20467;-48
2022/07/12 01:37:31;;;;;;;7.60;6.90;;;;;;;13.69;100.00;102323.00;5029391;28;20523;-44
2022/07/12 01:40:01;;;;;;;7.87;7.17;;;;;;;13.73;100.00;102327.00;5029778;28;20451;-47
2022/07/12 01:42:30;;;;;;;9.00;8.20;;;;;;;13.78;100.00;102331.81;5028646;28;20559;-43
2022/07/12 01:44:58;;;;;;;7.60;6.77;;;;;;;13.82;100.00;102341.16;5029885;28;20486;-46
2022/07/12 01:47:28;;;;;;;8.20;7.40;;;;;;;13.88;100.00;102331.56;5029611;28;20436;-45
2022/07/12 01:49:56;;;;;;;10.47;7.63;;;;;;;13.94;100.00;102333.53;5029289;28;20531;-44
2022/07/12 01:52:24;;;;;;;8.20;7.37;;;;;;;13.97;100.00;102334.00;5028647;28;20483;-46
2022/07/12 01:54:52;;;;;;;7.63;7.03;;;;;;;14.02;100.00;102334.28;5024448;28;20813;-45
2022/07/12 01:57:21;;;;;;;8.60;7.80;;;;;;;14.05;100.00;102331.25;5029504;28;20454;-44
2022/07/12 01:59:49;;;;;;;8.33;7.63;;;;;;;14.09;100.00;102339.78;5029399;28;20454;-44
2022/07/12 02:02:17;;;;;;;7.43;6.83;;;;;;;14.13;100.00;102346.44;5028576;28;20474;-43
2022/07/12 02:04:45;;;;;;;7.27;6.67;;;;;;;14.17;100.00;102347.75;5029423;28;20524;-43
2022/07/12 02:07:13;;;;;;;7.07;6.43;;;;;;;14.20;100.00;102342.84;5027452;28;20429;-42
2022/07/12 02:09:40;;;;;;;7.70;6.97;;;;;;;14.25;100.00;102345.81;5029339;28;20460;-42
2022/07/12 02:12:08;;;;;;;7.57;6.87;;;;;;;14.26;100.00;102342.13;5028587;28;20970;-42
2022/07/12 02:14:37;;;;;;;7.27;6.57;;;;;;;14.31;100.00;102344.25;5029367;28;20460;-43
2022/07/12 02:17:05;;;;;;;8.20;7.47;;;;;;;14.34;100.00;102354.66;5029385;28;20865;-43
2022/07/12 02:19:33;;;;;;;6.73;6.30;;;;;;;14.39;100.00;102354.97;5029302;28;20466;-44
2022/07/12 02:22:01;;;;;;;7.10;6.43;;;;;;;14.42;100.00;102359.13;5030492;28;20992;-44
2022/07/12 02:24:28;;;;;;;7.40;6.80;;;;;;;14.44;100.00;102349.88;5032603;28;20436;-42
2022/07/12 02:26:56;;;;;;;7.47;6.93;;;;;;;14.49;100.00;102357.38;5032720;28;20459;-42
2022/07/12 02:29:23;;;;;;;6.80;6.20;;;;;;;14.52;100.00;102357.84;5032575;28;20458;-45
2022/07/12 02:31:53;;;;;;;6.87;6.37;;;;;;;14.56;100.00;102358.31;5032727;28;20530;-44
2022/07/12 02:34:20;;;;;;;7.70;7.10;;;;;;;14.59;100.00;102353.41;5040783;28;20432;-42
2022/07/12 02:36:48;;;;;;;9.23;7.10;;;;;;;14.63;100.00;102360.09;5032695;28;20440;-42
2022/07/12 02:39:16;;;;;;;7.63;7.03;;;;;;;14.66;100.00;102361.56;5032252;28;21012;-45
2022/07/12 02:41:43;;;;;;;7.87;7.10;;;;;;;14.66;100.00;102362.41;5031981;28;21013;-43
2022/07/12 02:44:11;;;;;;;7.67;7.07;;;;;;;14.68;100.00;102363.06;5032153;28;20543;-42
2022/07/12 02:46:39;;;;;;;7.50;6.90;;;;;;;14.69;100.00;102354.00;5032741;28;20436;-46
2022/07/12 02:49:08;;;;;;;6.90;6.40;;;;;;;14.73;100.00;102354.44;5032728;28;20452;-43
2022/07/12 02:51:35;;;;;;;6.97;6.37;;;;;;;14.76;100.00;102360.28;5024759;28;20456;-43
2022/07/12 02:54:03;;;;;;;7.47;6.57;;;;;;;14.78;100.00;102363.59;5032340;28;20439;-43
2022/07/12 02:56:31;;;;;;;7.27;6.63;;;;;;;14.80;100.00;102352.69;5023295;28;20438;-44
2022/07/12 02:58:58;;;;;;;7.20;6.43;;;;;;;14.82;100.00;102359.53;5032200;28;20873;-43
2022/07/12 03:01:26;;;;;;;7.00;6.50;;;;;;;14.85;100.00;102356.47;5031837;28;20470;-42
2022/07/12 03:03:54;;;;;;;5.97;5.47;;;;;;;14.89;100.00;102359.63;5031584;28;20517;-43
2022/07/12 03:06:23;;;;;;;6.43;5.93;;;;;;;14.91;100.00;102361.09;5032035;28;20432;-44
2022/07/12 03:08:51;;;;;;;6.57;5.90;;;;;;;14.96;100.00;102358.69;5032085;28;20987;-44
2022/07/12 03:11:18;;;;;;;5.93;5.40;;;;;;;14.98;100.00;102350.47;5028151;28;20461;-44
2022/07/12 03:13:46;;;;;;;6.67;6.17;;;;;;;14.99;100.00;102359.34;5031871;28;20432;-42
2022/07/12 03:16:14;;;;;;;5.10;4.80;;;;;;;15.05;100.00;102363.97;5031990;28;20926;-42
2022/07/12 03:18:43;;;;;;;6.10;5.60;;;;;;;15.07;100.00;102351.19;5031436;28;20460;-42
2022/07/12 03:21:12;;;;;;;5.80;5.50;;;;;;;15.09;100.00;102360.72;5031457;28;20454;-43
2022/07/12 03:23:43;;;;;;;7.13;5.57;;;;;;;15.13;100.00;102366.56;5031273;28;20475;-43
2022/07/12 03:26:10;;;;;;;4.90;4.60;;;;;;;15.18;100.00;102364.13;5031742;28;20937;-43
2022/07/12 03:28:38;;;;;;;5.40;4.97;;;;;;;15.19;100.00;102363.97;5031385;28;20999;-42
2022/07/12 03:31:06;;;;;;;5.23;4.93;;;;;;;15.23;100.00;102362.53;5025856;28;20456;-42
2022/07/12 03:33:33;;;;;;;7.03;5.40;;;;;;;15.28;100.00;102365.53;5032383;28;20428;-45
2022/07/12 03:36:01;;;;;;;5.17;4.77;;;;;;;15.36;100.00;102353.81;5039404;28;20442;-44
2022/07/12 03:38:29;;;;;;;5.37;4.87;;;;;;;15.41;100.00;102368.34;5030961;28;20452;-43
2022/07/12 03:40:58;;;;;;;6.17;5.67;;;;;;;15.43;100.00;102368.19;5031033;28;20440;-44
2022/07/12 03:43:25;;;;;;;6.57;6.00;;;;;;;15.43;100.00;102363.66;5031204;28;20480;-44
2022/07/12 03:45:53;;;;;;;6.40;5.90;;;;;;;15.45;100.00;102363.44;5031550;28;20428;-44
2022/07/12 03:48:21;;;;;;;6.23;5.83;;;;;;;15.52;100.00;102366.25;5031084;28;20456;-42
2022/07/12 03:50:49;;;;;;;6.47;5.87;;;;;;;15.57;100.00;102369.19;5030523;28;20853;-44
2022/07/12 03:53:16;;;;;;;6.60;6.00;;;;;;;15.64;100.00;102370.09;5031060;28;20432;-47
2022/07/12 03:55:44;;;;;;;6.40;5.77;;;;;;;15.70;100.00;102372.03;5031099;28;21023;-46
2022/07/12 03:58:13;;;;;;;6.00;5.40;;;;;;;15.70;100.00;102367.50;5030815;28;20531;-43
2022/07/12 04:00:42;;;;;;;6.97;6.37;;;;;;;15.72;100.00;102369.97;5031249;28;20442;-44
2022/07/12 04:03:11;;;;;;;6.60;6.10;;;;;;;15.73;100.00;102368.97;5030481;28;20564;-43
2022/07/12 04:05:38;;;;;;;5.67;5.20;;;;;;;15.73;100.00;102368.97;5030969;28;20436;-48
2022/07/12 04:08:06;;;;;;;6.20;5.80;;;;;;;15.75;100.00;102373.13;5028786;28;21212;-44
2022/07/12 04:10:34;;;;;;;5.37;5.07;;;;;;;15.77;100.00;102376.44;5028480;28;20464;-45
2022/07/12 04:13:02;;;;;;;6.10;5.70;;;;;;;15.80;100.00;102378.75;5040740;28;20542;-44
2022/07/12 04:15:31;;;;;;;5.27;5.07;;;;;;;15.82;100.00;102394.72;5049855;28;20439;-42
2022/07/12 04:17:58;;;;;;;5.30;5.00;;;;;;;15.66;100.00;102384.19;5050770;28;20463;-42
2022/07/12 04:20:26;;;;;;;6.10;5.60;;;;;;;15.53;100.00;102379.47;5051130;28;20436;-43
2022/07/12 04:22:54;;;;;;;6.37;5.97;;;;;;;15.48;100.00;102379.22;5050216;28;20475;-42
2022/07/12 04:25:24;;;;;;;7.30;6.70;;;;;;;15.47;100.00;102383.75;5050838;28;20462;-43
2022/07/12 04:27:55;;;;;;;6.07;5.67;;;;;;;15.45;100.00;102380.41;5051309;28;20438;-44
2022/07/12 04:30:23;;;;;;;6.37;6.07;;;;;;;15.35;100.00;102389.81;5049270;28;20474;-44
2022/07/12 04:32:51;;;;;;;7.07;6.57;;;;;;;15.35;100.00;102389.81;5048532;28;20451;-44
2022/07/12 04:35:20;;;;;;;6.67;6.17;;;;;;;15.33;100.00;102395.34;5044343;28;20435;-43
2022/07/12 04:37:47;;;;;;;6.50;6.10;;;;;;;15.38;100.00;102389.44;5050691;28;20445;-44
2022/07/12 04:40:15;;;;;;;6.00;5.60;;;;;;;15.40;100.00;102392.75;5050331;28;21054;-43
2022/07/12 04:42:43;;;;;;;6.60;6.20;;;;;;;15.42;100.00;102396.91;5049967;28;20463;-43
2022/07/12 04:45:10;;;;;;;6.30;5.90;;;;;;;15.41;100.00;102400.63;5050285;28;20435;-44
2022/07/12 04:47:38;;;;;;;6.03;5.50;;;;;;;15.45;100.00;102409.16;5050886;28;20976;-43
2022/07/12 04:50:08;;;;;;;7.77;7.27;;;;;;;15.43;100.00;102414.72;5050281;28;21195;-47
2022/07/12 04:52:36;;;;;;;6.80;6.33;;;;;;;15.49;100.00;102415.84;5048694;28;20455;-45
2022/07/12 04:55:05;;;;;;;6.80;6.40;;;;;;;15.58;100.00;102414.72;5025323;28;20428;-46
2022/07/12 04:57:32;;;;;;;6.10;5.70;;;;;;;15.61;100.00;102413.50;5029525;28;20512;-45
2022/07/12 05:00:00;;;;;;;6.77;6.27;;;;;;;15.66;100.00;102417.28;5029631;28;20463;-43
2022/07/12 05:02:28;;;;;;;6.10;5.77;;;;;;;15.69;100.00;102424.16;5029320;28;20548;-45
2022/07/12 05:04:56;;;;;;;6.13;5.73;;;;;;;15.79;100.00;102422.00;5029898;28;20819;-45
2022/07/12 05:07:25;;;;;;;6.93;6.53;;;;;;;15.80;100.00;102410.22;5029610;28;20523;-43
2022/07/12 05:09:53;;;;;;;8.77;6.10;;;;;;;15.81;100.00;102415.41;5029246;28;20470;-43
2022/07/12 05:12:21;;;;;;;7.50;7.10;;;;;;;15.84;100.00;102416.88;5026925;28;20496;-46
2022/07/12 05:14:48;;;;;;;6.63;6.23;;;;;;;15.88;100.00;102421.69;5029460;28;20447;-43
2022/07/12 05:17:16;;;;;;;7.30;6.80;;;;;;;15.86;100.00;102418.34;5029984;28;20446;-43
2022/07/12 05:19:43;;;;;;;7.80;7.20;;;;;;;15.84;100.00;102417.72;5023555;28;21016;-42
2022/07/12 05:22:11;;;;;;;6.80;6.30;;;;;;;15.90;100.00;102424.19;5029061;28;20870;-42
2022/07/12 05:24:40;;;;;;;7.37;6.87;;;;;;;15.85;100.00;102422.06;5029657;28;20468;-43
2022/07/12 05:27:08;;;;;;;7.70;7.20;;;;;;;15.78;100.00;102425.69;5029634;28;20432;-43
2022/07/12 05:29:35;;;;;;;7.33;6.83;;;;;;;15.72;100.00;102424.59;5028642;28;20456;-43
2022/07/12 05:32:03;;;;;;;7.47;6.87;;;;;;;15.70;100.00;102423.13;5031969;28;20461;-46
2022/07/12 05:34:38;;;;;;;6.90;6.50;;;;;;;15.69;100.00;102410.69;5033552;28;20506;-43
2022/07/12 05:37:06;;;;;;;6.47;6.07;;;;;;;15.75;99.72;102418.84;5029805;28;20436;-45
2022/07/12 05:39:33;;;;;;;6.37;5.97;;;;;;;15.81;99.94;102415.41;5029420;28;20458;-43
2022/07/12 05:42:02;;;;;;;5.53;5.23;;;;;;;15.92;100.00;102414.88;5029445;28;20509;-43
2022/07/12 05:44:30;;;;;;;5.27;5.00;;;;;;;15.84;100.00;102416.88;5014521;28;20472;-42
2022/07/12 05:46:58;;;;;;;4.70;4.50;;;;;;;16.01;100.00;102419.13;5030077;28;20432;-43
2022/07/12 05:49:25;;;;;;;4.40;4.20;;;;;;;16.08;100.00;102412.97;5029578;28;20460;-45
2022/07/12 05:54:38;;;;;;;4.20;4.03;;;;;;;16.24;100.00;102420.81;5029238;28;20428;-44
2022/07/12 05:57:07;;;;;;;4.20;4.10;;;;;;;16.18;100.00;102421.56;5032317;28;20435;-45
2022/07/12 05:59:35;;;;;;;5.23;5.03;;;;;;;16.16;100.00;102418.25;5033540;28;21037;-43
2022/07/12 06:02:03;;;;;;;4.90;4.70;;;;;;;16.32;100.00;102424.19;5032303;28;20832;-45
2022/07/12 06:04:31;;;;;;;4.33;4.13;;;;;;;16.40;100.00;102424.03;5033533;28;20478;-44
2022/07/12 06:06:59;;;;;;;4.03;3.90;;;;;;;16.52;100.00;102408.19;5033600;28;20437;-43
2022/07/12 06:09:27;;;;;;;5.00;4.80;;;;;;;16.66;100.00;102407.31;5033143;28;20456;-44
2022/07/12 06:11:55;;;;;;;4.97;4.77;;;;;;;16.78;100.00;102399.50;5032855;28;20478;-45
2022/07/12 06:14:24;;;;;;;5.07;4.87;;;;;;;16.75;100.00;102406.13;5033779;28;20432;-45
2022/07/12 06:16:52;;;;;;;5.10;4.80;;;;;;;16.77;100.00;102422.09;5029969;28;20436;-45
2022/07/12 06:19:20;;;;;;;4.17;3.97;;;;;;;16.79;100.00;102415.47;5033347;28;20447;-43
2022/07/12 06:21:47;;;;;;;4.47;4.17;;;;;;;16.84;100.00;102415.72;5032600;28;20542;-46
2022/07/12 06:24:15;;;;;;;4.63;4.43;;;;;;;16.88;100.00;102418.84;5033398;28;20475;-46
2022/07/12 06:26:43;;;;;;;4.50;4.27;;;;;;;16.97;100.00;102417.66;5033530;28;20437;-47
2022/07/12 06:29:10;;;;;;;4.43;4.23;;;;;;;17.05;100.00;102407.53;5021768;28;20988;-44
2022/07/12 06:31:39;;;;;;;4.50;4.30;;;;;;;17.09;100.00;102419.59;5026252;28;20460;-48
2022/07/12 06:34:07;;;;;;;4.50;4.20;;;;;;;17.25;100.00;102412.22;5032636;28;20423;-46
2022/07/12 06:36:35;;;;;;;4.40;4.20;;;;;;;17.38;100.00;102409.59;5037599;28;20459;-46
2022/07/12 06:39:02;;;;;;;4.37;4.20;;;;;;;17.54;100.00;102418.19;5033119;28;20452;-43
2022/07/12 06:41:30;;;;;;;4.00;3.80;;;;;;;17.75;100.00;102425.31;5029871;28;20481;-45
2022/07/12 06:43:57;;;;;;;4.90;4.70;;;;;;;17.67;100.00;102420.09;5031875;28;20475;-44
2022/07/12 06:46:25;;;;;;;3.83;3.70;;;;;;;17.78;100.00;102411.41;5032990;28;20442;-46
2022/07/12 06:48:54;;;;;;;4.13;4.03;;;;;;;17.91;100.00;102418.72;5032367;28;20594;-46
2022/07/12 06:51:22;;;;;;;3.80;3.70;;;;;;;18.07;100.00;102411.06;5029785;28;20458;-46
2022/07/12 06:53:49;;;;;;;3.90;3.70;;;;;;;18.25;100.00;102411.28;5031511;28;20921;-48
2022/07/12 06:56:17;;;;;;;4.60;4.40;;;;;;;18.10;97.40;102410.63;5032271;28;20523;-45
2022/07/12 06:58:45;;;;;;;5.07;4.87;;;;;;;18.01;98.55;102411.06;5030897;28;20470;-48
2022/07/12 07:01:12;;;;;;;4.83;4.53;;;;;;;18.10;99.64;102405.25;5031316;28;20456;-43
2022/07/12 07:03:40;;;;;;;4.80;4.60;;;;;;;18.44;98.98;102408.78;5031820;28;20474;-45
2022/07/12 07:06:09;;;;;;;4.13;3.93;;;;;;;18.79;98.64;102410.25;5031462;28;21131;-43
2022/07/12 07:08:37;;;;;;;4.00;3.80;;;;;;;19.27;97.45;102408.03;5031000;28;20547;-44
2022/07/12 07:11:05;;;;;;;3.50;3.40;;;;;;;19.54;90.44;102420.47;5030899;28;20551;-44
2022/07/12 07:13:33;;;;;;;3.83;3.73;;;;;;;19.76;87.69;102421.81;5030369;28;20440;-47
2022/07/12 07:16:09;;;;;;;3.77;3.57;;;;;;;19.59;88.47;102427.94;5031270;28;20525;-44
2022/07/12 07:18:36;;;;;;;4.10;3.90;;;;;;;19.54;90.55;102433.16;5031437;28;21076;-46
2022/07/12 07:21:04;;;;;;;4.53;4.33;;;;;;;19.93;91.79;102434.81;5030709;28;20501;-45
2022/07/12 07:23:33;;;;;;;4.50;4.30;;;;;;;20.03;88.67;102425.19;5030788;28;20435;-43
2022/07/12 07:26:01;;;;;;;4.07;3.97;;;;;;;20.00;86.48;102424.78;5031659;28;20562;-45
2022/07/12 07:28:29;;;;;;;3.87;3.70;;;;;;;20.09;86.43;102421.63;5031108;28;20455;-48
2022/07/12 07:31:13;;;;;;;3.87;3.77;;;;;;;20.30;85.25;102434.84;5031404;28;20467;-48
2022/07/12 07:33:41;;;;;;;3.83;3.73;;;;;;;20.28;81.69;102428.78;5038979;28;20959;-47
2022/07/12 07:36:09;;;;;;;4.17;3.97;;;;;;;19.97;83.91;102431.47;5051270;28;20458;-44
2022/07/12 07:38:38;;;;;;;4.40;4.20;;;;;;;19.96;85.76;102440.63;5050745;28;20454;-45
2022/07/12 07:41:06;;;;;;;3.70;3.53;;;;;;;20.11;86.06;102438.47;5049601;28;20847;-43
2022/07/12 07:43:34;;;;;;;4.00;3.90;;;;;;;20.25;85.08;102442.75;5027476;28;20454;-46
2022/07/12 07:46:02;;;;;;;4.10;3.90;;;;;;;20.14;84.87;102448.03;5029634;28;20479;-44
2022/07/12 07:48:30;;;;;;;3.73;3.63;;;;;;;20.11;85.50;102456.59;5032452;28;20480;-48
2022/07/12 07:50:58;;;;;;;4.13;3.93;;;;;;;20.26;85.33;102446.31;5049299;28;20846;-43
2022/07/12 07:53:25;;;;;;;4.37;4.17;;;;;;;20.66;84.65;102447.66;5049256;28;20854;-44
2022/07/12 07:55:55;;;;;;;4.83;4.63;;;;;;;20.91;82.56;102450.34;5049114;28;20435;-45
2022/07/12 07:58:23;;;;;;;4.80;4.53;;;;;;;21.07;82.03;102444.34;5049257;28;20446;-44
2022/07/12 08:00:51;;;;;;;4.30;4.20;;;;;;;21.26;81.93;102448.75;5037828;28;20439;-44
2022/07/12 08:03:19;;;;;;;3.93;3.83;;;;;;;21.22;78.84;102450.25;5029268;28;20511;-43
2022/07/12 08:05:47;;;;;;;3.80;3.70;;;;;;;21.09;78.41;102452.28;5029255;28;20477;-44
2022/07/12 08:08:15;;;;;;;3.50;3.40;;;;;;;20.92;79.31;102460.13;5028477;28;21062;-43
2022/07/12 08:10:43;;;;;;;3.70;3.60;;;;;;;20.92;79.53;102454.72;5028992;28;20431;-44
2022/07/12 08:13:12;;;;;;;3.77;3.57;;;;;;;21.05;80.74;102457.31;5040471;28;20442;-43
2022/07/12 08:15:40;;;;;;;4.30;4.10;;;;;;;20.76;77.85;102457.97;5037699;28;20458;-45
2022/07/12 08:18:07;;;;;;;3.60;3.47;;;;;;;21.00;80.96;102451.69;5029151;28;20463;-44
2022/07/12 08:20:35;;;;;;;3.40;3.30;;;;;;;21.28;80.85;102446.66;5028371;28;20498;-44
2022/07/12 08:23:14;;;;;;;3.43;3.33;;;;;;;21.34;79.58;102453.88;5028650;28;20459;-45
2022/07/12 08:25:42;;;;;;;3.23;3.13;;;;;;;21.18;77.74;102445.50;5028868;28;20471;-43
2022/07/12 08:28:09;;;;;;;3.20;3.10;;;;;;;21.47;77.43;102451.00;5029434;28;20460;-44
2022/07/12 08:30:39;;;;;;;3.00;2.90;;;;;;;21.77;78.33;102455.66;5048737;28;20920;-44
2022/07/12 08:33:13;;;;;;;3.03;2.93;;;;;;;21.99;74.53;102448.66;5043881;28;20468;-44
2022/07/12 08:35:41;;;;;;;3.40;3.30;;;;;;;21.92;72.58;102448.75;5045182;28;20518;-45
2022/07/12 08:38:09;;;;;;;3.70;3.10;;;;;;;21.90;71.67;102452.78;5030878;28;20451;-44
2022/07/12 08:40:37;;;;;;;3.00;2.90;;;;;;;21.78;71.64;102454.56;5028440;28;21015;-45
2022/07/12 08:43:05;;;;;;;3.13;2.93;;;;;;;21.89;72.79;102453.84;5027930;28;20921;-44
2022/07/12 08:45:33;;;;;;;3.67;3.10;;;;;;;21.66;71.69;102457.22;5028713;28;20479;-47
2022/07/12 08:48:02;;;;;;;3.73;3.47;;;;;;;22.27;74.44;102454.31;5029046;28;20809;-45
2022/07/12 08:50:30;;;;;;;3.20;3.10;;;;;;;22.91;73.58;102442.56;5028199;28;20435;-45
2022/07/12 08:52:58;;;;;;;3.00;2.90;;;;;;;23.27;69.90;102443.34;5027556;28;20539;-46
2022/07/12 08:55:28;;;;;;;3.10;2.90;;;;;;;23.82;68.28;102440.97;5026836;28;20432;-44
2022/07/12 08:57:57;;;;;;;3.17;3.07;;;;;;;23.43;65.09;102440.75;5028562;28;20424;-46
2022/07/12 09:00:26;;;;;;;3.43;3.23;;;;;;;23.45;66.73;102443.22;5030508;28;20438;-47
2022/07/12 09:02:55;;;;;;;3.67;3.57;;;;;;;24.02;66.34;102438.63;5028776;28;20820;-44
2022/07/12 09:05:26;;;;;;;3.43;3.33;;;;;;;24.20;64.30;102442.00;5030038;28;20538;-45
2022/07/12 09:08:03;;;;;;;3.40;3.30;;;;;;;24.29;62.31;102444.31;5017363;28;20444;-46
2022/07/12 09:10:31;;;;;;;3.63;3.33;;;;;;;24.03;59.87;102437.56;5030213;28;20435;-46
2022/07/12 09:12:59;;;;;;;3.40;3.30;;;;;;;23.97;63.95;102433.09;5029344;28;20479;-44
2022/07/12 09:15:27;;;;;;;3.70;3.60;;;;;;;23.88;61.98;102438.09;5030450;28;20431;-45
2022/07/12 09:17:58;;;;;;;4.13;2.90;;;;;;;23.72;61.88;102427.16;5029761;28;20455;-45
2022/07/12 09:20:28;;;;;;;3.50;3.40;;;;;;;23.50;62.72;102425.13;5030324;28;20432;-46
2022/07/12 09:22:58;;;;;;;3.50;3.40;;;;;;;23.30;62.21;102413.75;5021676;28;20460;-46
2022/07/12 09:25:26;;;;;;;4.00;3.87;;;;;;;22.54;65.69;102420.22;5029913;28;20481;-45
2022/07/12 09:27:56;;;;;;;4.00;3.90;;;;;;;22.63;68.82;102428.00;5029904;28;20431;-47
2022/07/12 09:30:25;;;;;;;4.73;4.53;;;;;;;23.40;67.59;102424.06;5031235;28;20527;-44
2022/07/12 09:38:29;;;;;;;5.07;4.97;;;;;;;24.93;60.52;102426.53;5032821;28;20510;-46
2022/07/12 09:40:58;;;;;;;5.73;5.43;;;;;;;24.84;57.78;102422.59;5033351;28;20466;-45
2022/07/12 09:43:27;;;;;;;6.10;5.90;;;;;;;24.66;60.89;102416.31;5033855;28;20465;-44
2022/07/12 09:45:55;;;;;;;5.60;5.50;;;;;;;24.74;59.35;102426.78;5032356;28;20507;-44
2022/07/12 09:48:24;;;;;;;7.80;5.93;;;;;;;24.45;59.98;102427.13;5033902;28;20456;-45
2022/07/12 09:50:53;;;;;;;5.83;5.33;;;;;;;24.90;60.00;102427.88;5033158;28;20448;-46
2022/07/12 09:53:23;;;;;;;5.60;5.50;;;;;;;25.12;57.48;102427.88;5033391;28;20626;-45
2022/07/12 09:55:52;;;;;;;5.60;5.50;;;;;;;25.29;57.44;102426.78;5033767;28;20427;-45
2022/07/12 09:58:27;;;;;;;5.77;5.57;;;;;;;25.55;56.59;102417.00;5033640;28;20452;-45
2022/07/12 10:00:56;;;;;;;6.10;5.90;;;;;;;25.50;56.48;102414.22;5033156;28;20442;-45
2022/07/12 10:03:24;;;;;;;5.60;5.50;;;;;;;25.35;57.51;102408.53;5032325;28;20438;-46
2022/07/12 10:05:54;;;;;;;5.70;5.60;;;;;;;25.34;57.60;102409.59;5033000;28;20557;-44
2022/07/12 10:08:22;;;;;;;5.80;5.60;;;;;;;25.30;57.10;102408.44;5037439;28;20455;-45
2022/07/12 10:10:51;;;;;;;6.20;5.90;;;;;;;25.43;56.75;102424.47;5033299;28;20442;-45
2022/07/12 10:13:20;;;;;;;5.20;5.10;;;;;;;25.14;55.53;102414.81;5032626;28;20438;-44
2022/07/12 10:15:50;;;;;;;6.00;5.80;;;;;;;24.45;60.42;102421.69;5033895;28;20912;-43
2022/07/12 10:18:20;;;;;;;5.77;5.57;;;;;;;24.42;60.23;102417.56;5032646;28;20470;-45
2022/07/12 10:20:48;;;;;;;6.90;6.50;;;;;;;24.67;60.51;102415.22;5032662;28;20439;-45
2022/07/12 10:23:35;;;;;;;6.77;6.40;;;;;;;24.90;61.14;102406.03;5032761;28;21175;-45
2022/07/12 10:26:25;;;;;;;6.33;6.13;;;;;;;25.21;57.95;102410.81;5032515;28;20479;-44
2022/07/12 10:28:56;;;;;;;5.80;5.70;;;;;;;25.46;58.15;102401.28;5032685;28;20453;-46
2022/07/12 10:31:28;;;;;;;5.90;5.80;;;;;;;25.24;58.69;102395.81;5032884;28;20466;-45
2022/07/12 10:34:20;;;;;;;5.87;5.77;;;;;;;25.08;58.51;102402.19;5036865;28;20474;-45
2022/07/12 10:37:20;;;;;;;5.70;5.60;;;;;;;25.33;55.91;102404.41;5035121;28;20941;-46
2022/07/12 10:40:15;;;;;;;5.30;5.20;;;;;;;25.55;56.09;102394.31;5032275;28;20456;-45
2022/07/12 10:43:14;;;;;;;5.10;5.00;;;;;;;25.63;53.62;102397.41;5020561;28;20540;-44
2022/07/12 10:45:43;;;;;;;4.93;4.53;;;;;;;25.82;55.37;102395.97;5020872;28;20518;-43
2022/07/12 10:48:21;;;;;;;4.50;4.40;;;;;;;25.87;53.94;102397.91;5032591;28;20534;-46
2022/07/12 10:50:59;;;;;;;4.50;4.40;;;;;;;25.88;55.79;102388.66;5032468;28;20782;-46
2022/07/12 10:53:30;;;;;;;4.50;4.40;;;;;;;25.96;55.89;102393.63;5032166;28;20439;-45
2022/07/12 10:56:27;;;;;;;4.10;4.00;;;;;;;25.82;53.90;102382.31;5032057;28;20555;-45
2022/07/12 10:58:59;;;;;;;4.50;4.40;;;;;;;26.01;57.08;102371.84;5023473;28;20500;-45
2022/07/12 11:01:29;;;;;;;4.10;4.00;;;;;;;26.34;55.95;102370.75;5031005;28;20467;-44
2022/07/12 11:04:04;;;;;;;4.00;3.90;;;;;;;26.59;54.49;102365.44;5032036;28;20443;-45
2022/07/12 11:06:35;;;;;;;3.93;3.83;;;;;;;26.88;54.42;102380.41;5032123;28;20485;-46
2022/07/12 11:09:05;;;;;;;4.20;4.00;;;;;;;26.77;51.78;102370.47;5031772;28;20463;-46
2022/07/12 11:11:36;;;;;;;3.30;3.20;;;;;;;26.93;51.41;102374.16;5031746;28;21024;-46
2022/07/12 11:14:04;;;;;;;3.47;3.37;;;;;;;26.80;52.29;102369.16;5032107;28;20436;-45
2022/07/12 11:16:32;;;;;;;3.40;3.30;;;;;;;26.86;52.73;102371.66;5032381;28;20523;-44
2022/07/12 11:19:01;;;;;;;3.30;3.20;;;;;;;26.82;52.73;102367.78;5030555;28;20456;-44
2022/07/12 11:21:34;;;;;;;3.37;3.27;;;;;;;26.90;51.87;102370.03;5025326;28;20463;-44
2022/07/12 11:24:02;;;;;;;3.67;3.57;;;;;;;26.79;53.28;102376.53;5031511;28;20526;-45
2022/07/12 11:26:35;;;;;;;3.60;3.40;;;;;;;26.83;51.96;102380.41;5031992;28;20478;-47
2022/07/12 11:29:03;;;;;;;2.97;2.87;;;;;;;27.08;51.71;102378.88;5031906;28;20456;-44
2022/07/12 11:31:31;;;;;;;3.60;3.50;;;;;;;27.29;49.54;102372.38;5031353;28;20456;-45
2022/07/12 11:33:58;;;;;;;3.53;3.33;;;;;;;27.31;51.58;102365.53;5041162;28;20439;-47
2022/07/12 11:36:27;;;;;;;3.10;3.00;;;;;;;27.46;51.60;102356.56;5034507;28;20462;-45
2022/07/12 11:38:55;;;;;;;3.40;3.20;;;;;;;27.51;52.03;102353.03;5031193;28;20524;-46